Tebbetts, Missouri
Current Conditions -  °F | °C
As of 12:53 PM on Sunday 21 Dec 2014 (Local Time) from KJEF Reporting Station
Overcast Overcast  
Wind Chill: 39°   Ceiling: 2000
Heat Index: 45°   Visibility: 10mi
Dew Point: 37°   Wind: 14mph
Humidity: 74%   Direction: 160°SSE
Pressure: 30.02"   Gusts: 18mph
Location:  38.62°N, 91.96°W
Report Text: KJEF 211853Z 16012G16KT 10SM BKN020 BKN029 OVC049 07/03 A3002 RMK AO2 SLP159 T00720028
Loading
Personal Weather Stations






























Interactive Weather Map New forecast layout! Learn more

10-Day Weather Forecast

Advertisements
Track Severe Weather on mobile